createdAt,value
2023-04-16T00:02:12.891Z,28.52
2023-04-16T00:05:15.038Z,31.20
2023-04-16T00:08:16.648Z,28.88
2023-04-16T00:11:18.325Z,27.33
2023-04-16T00:14:20.301Z,26.60
2023-04-16T00:17:21.991Z,29.25
2023-04-16T00:20:23.833Z,29.15
2023-04-16T00:23:25.793Z,29.27
2023-04-16T00:26:27.620Z,32.42
2023-04-16T00:29:31.032Z,31.30
2023-04-16T00:32:32.686Z,31.67
2023-04-16T00:35:34.901Z,35.63
2023-04-16T00:38:37.436Z,32.05
2023-04-16T00:41:39.131Z,34.17
2023-04-16T00:44:40.920Z,35.72
2023-04-16T00:47:42.749Z,35.90
2023-04-16T00:50:44.487Z,36.25
2023-04-16T00:53:47.152Z,35.97
2023-04-16T00:56:49.212Z,37.03
2023-04-16T00:59:51.593Z,36.30
2023-04-16T01:02:54.721Z,41.50
2023-04-16T01:05:57.002Z,36.47
2023-04-16T01:08:58.713Z,37.45
2023-04-16T01:12:00.555Z,37.78
2023-04-16T01:15:02.524Z,38.78
2023-04-16T01:18:20.263Z,38.15
2023-04-16T01:21:22.151Z,37.22
2023-04-16T01:24:23.868Z,39.13
2023-04-16T01:27:25.725Z,39.78
2023-04-16T01:30:27.438Z,37.33
2023-04-16T01:33:41.927Z,32.10
2023-04-16T01:36:45.911Z,36.20
2023-04-16T01:39:47.760Z,36.65
2023-04-16T01:42:49.580Z,40.30
2023-04-16T01:45:53.962Z,39.22
2023-04-16T01:48:55.983Z,36.58
2023-04-16T01:51:57.940Z,36.90
2023-04-16T01:54:59.631Z,37.80
2023-04-16T01:58:01.315Z,33.97
2023-04-16T02:01:07.401Z,35.15
2023-04-16T02:04:10.957Z,40.67
2023-04-16T02:07:13.078Z,40.22
2023-04-16T02:10:14.774Z,40.10
2023-04-16T02:13:16.768Z,40.53
2023-04-16T02:16:20.998Z,39.55
2023-04-16T02:19:28.763Z,42.80
2023-04-16T02:22:30.898Z,41.97
2023-04-16T02:25:33.045Z,41.88
2023-04-16T02:28:34.838Z,40.83
2023-04-16T02:31:37.251Z,46.40
2023-04-16T02:34:40.356Z,46.03
2023-04-16T02:37:42.220Z,43.38
2023-04-16T02:40:44.020Z,44.03
2023-04-16T02:43:46.354Z,44.78
2023-04-16T02:46:47.878Z,43.25
2023-04-16T02:49:49.678Z,44.25
2023-04-16T02:52:52.174Z,47.00
2023-04-16T02:55:55.952Z,41.15
2023-04-16T02:58:57.770Z,46.30
2023-04-16T03:01:59.875Z,43.60
2023-04-16T03:05:02.192Z,43.50
2023-04-16T03:08:04.654Z,42.33
2023-04-16T03:11:06.527Z,43.85
2023-04-16T03:14:08.140Z,44.85
2023-04-16T03:17:09.959Z,44.65
2023-04-16T03:20:12.302Z,42.60
2023-04-16T03:23:13.930Z,41.92
2023-04-16T03:26:15.628Z,42.58
2023-04-16T03:29:17.633Z,45.25
2023-04-16T03:32:19.994Z,40.08
2023-04-16T03:35:21.952Z,39.38
2023-04-16T03:38:26.161Z,35.40
2023-04-16T03:41:30.556Z,41.88
2023-04-16T03:44:33.376Z,39.28
2023-04-16T03:47:36.182Z,36.58
2023-04-16T03:50:38.972Z,36.78
2023-04-16T03:53:43.441Z,39.30
2023-04-16T03:56:45.563Z,40.05
2023-04-16T03:59:47.952Z,37.42
2023-04-16T04:02:51.931Z,39.83
2023-04-16T04:05:54.977Z,37.92
2023-04-16T04:09:05.614Z,32.63
2023-04-16T04:12:08.091Z,36.05
2023-04-16T04:15:10.745Z,34.22
2023-04-16T04:18:12.454Z,36.47
2023-04-16T04:21:14.190Z,33.33
2023-04-16T04:24:15.871Z,38.42
2023-04-16T04:27:17.688Z,36.88
2023-04-16T04:30:19.579Z,38.60
2023-04-16T04:33:21.451Z,38.03
2023-04-16T04:36:23.152Z,39.05
2023-04-16T04:39:25.111Z,34.40
2023-04-16T04:42:27.161Z,35.10
2023-04-16T04:45:31.968Z,34.85
2023-04-16T04:48:34.091Z,34.20
2023-04-16T04:51:36.303Z,35.75
2023-04-16T04:54:41.628Z,43.60
2023-04-16T04:57:43.334Z,34.80
2023-04-16T05:00:45.454Z,37.05
2023-04-16T05:03:47.169Z,35.05
2023-04-16T05:06:49.100Z,33.83
2023-04-16T05:09:51.185Z,40.47
2023-04-16T05:12:52.801Z,37.15
2023-04-16T05:15:54.518Z,38.60
2023-04-16T05:18:56.631Z,35.70
2023-04-16T05:21:58.447Z,38.67
2023-04-16T05:25:00.221Z,39.30
2023-04-16T05:28:01.912Z,35.08
2023-04-16T05:31:03.959Z,34.15
2023-04-16T05:34:05.956Z,32.28
2023-04-16T05:37:07.662Z,32.63
2023-04-16T05:40:09.976Z,37.03
2023-04-16T05:43:11.784Z,35.90
2023-04-16T05:46:13.564Z,34.08
2023-04-16T05:49:15.672Z,35.20
2023-04-16T05:52:17.360Z,31.52
2023-04-16T05:55:19.190Z,31.15
2023-04-16T05:58:20.988Z,28.55
2023-04-16T06:01:22.917Z,33.03
2023-04-16T06:04:24.716Z,36.05
2023-04-16T06:07:26.397Z,32.55
2023-04-16T06:10:28.376Z,31.35
2023-04-16T06:13:30.279Z,31.23
2023-04-16T06:16:32.213Z,29.08
2023-04-16T06:19:34.065Z,33.22
2023-04-16T06:22:35.904Z,33.55
2023-04-16T06:25:37.662Z,33.20
2023-04-16T06:28:39.333Z,32.92
2023-04-16T06:31:41.380Z,33.25
2023-04-16T06:34:43.426Z,37.00
2023-04-16T06:37:45.462Z,35.97
2023-04-16T06:40:49.282Z,32.67
2023-04-16T06:43:51.234Z,32.65
2023-04-16T06:46:52.936Z,31.38
2023-04-16T06:49:54.663Z,30.83
2023-04-16T06:52:56.629Z,33.60
2023-04-16T06:55:58.282Z,31.02
2023-04-16T06:59:01.109Z,30.67
2023-04-16T07:02:02.976Z,30.58
2023-04-16T07:05:05.165Z,29.58
2023-04-16T07:08:07.059Z,30.35
2023-04-16T07:11:08.728Z,32.00
2023-04-16T07:14:10.602Z,31.13
2023-04-16T07:17:12.553Z,29.33
2023-04-16T07:20:14.457Z,32.00
2023-04-16T07:23:16.163Z,31.52
2023-04-16T07:26:18.018Z,28.38
2023-04-16T07:29:19.731Z,28.55
2023-04-16T07:32:22.741Z,29.25
2023-04-16T07:35:24.475Z,29.67
2023-04-16T07:38:26.402Z,29.25
2023-04-16T07:41:29.653Z,26.38
2023-04-16T07:44:31.629Z,28.55
2023-04-16T07:47:33.909Z,24.98
2023-04-16T07:50:36.393Z,31.75
2023-04-16T07:53:38.333Z,27.08
2023-04-16T07:56:40.068Z,28.00
2023-04-16T07:59:41.873Z,26.33
2023-04-16T08:02:44.377Z,27.70
2023-04-16T08:05:46.333Z,27.10
2023-04-16T08:08:47.966Z,27.33
2023-04-16T08:11:50.072Z,22.08
2023-04-16T08:14:53.191Z,21.17
2023-04-16T08:17:54.953Z,28.48
2023-04-16T08:20:56.775Z,25.33
2023-04-16T08:23:58.370Z,23.42
2023-04-16T08:27:11.246Z,27.92
2023-04-16T08:30:19.490Z,21.75
2023-04-16T08:33:21.522Z,25.00
2023-04-16T08:36:23.613Z,27.75
2023-04-16T08:39:25.745Z,27.02
2023-04-16T08:42:37.664Z,26.52
2023-04-16T08:45:41.936Z,24.55
2023-04-16T08:48:49.737Z,22.95
2023-04-16T08:51:54.096Z,23.40
2023-04-16T08:55:15.786Z,27.05
2023-04-16T08:58:24.591Z,25.73
2023-04-16T09:01:27.112Z,24.25
2023-04-16T09:04:29.546Z,24.98
2023-04-16T09:07:32.514Z,24.42
2023-04-16T09:10:34.676Z,26.42
2023-04-16T09:13:38.044Z,25.65
2023-04-16T09:16:41.112Z,24.90
2023-04-16T09:19:43.043Z,25.85
2023-04-16T09:22:46.581Z,24.67
2023-04-16T09:25:48.434Z,25.35
2023-04-16T09:28:52.793Z,27.65
2023-04-16T09:32:09.279Z,23.63
2023-04-16T09:35:10.955Z,24.60
2023-04-16T09:38:13.832Z,25.65
2023-04-16T09:41:18.908Z,26.58
2023-04-16T09:44:21.644Z,26.77
2023-04-16T09:47:25.960Z,27.60
2023-04-16T09:50:27.522Z,30.70
2023-04-16T09:53:31.632Z,26.75
2023-04-16T09:56:34.022Z,29.08
2023-04-16T09:59:36.446Z,26.50
2023-04-16T10:02:42.452Z,23.50
2023-04-16T10:05:44.776Z,28.48
2023-04-16T10:09:00.890Z,30.50
2023-04-16T10:12:03.007Z,29.67
2023-04-16T10:15:05.176Z,27.35
2023-04-16T10:18:07.926Z,26.95
2023-04-16T10:21:13.083Z,27.63
2023-04-16T10:24:17.623Z,26.50
2023-04-16T10:27:19.935Z,25.40
2023-04-16T10:30:22.707Z,25.58
2023-04-16T10:33:28.209Z,26.63
2023-04-16T10:36:30.441Z,27.25
2023-04-16T10:39:37.320Z,29.58
2023-04-16T10:42:39.056Z,29.92
2023-04-16T10:45:40.939Z,32.92
2023-04-16T10:48:49.725Z,35.90
2023-04-16T10:52:01.135Z,29.58
2023-04-16T10:55:02.812Z,30.05
2023-04-16T10:58:27.918Z,32.38
2023-04-16T11:01:36.793Z,30.63
2023-04-16T11:04:40.410Z,29.65
2023-04-16T11:07:49.622Z,31.05
2023-04-16T11:10:51.796Z,33.45
2023-04-16T11:13:56.521Z,33.67
2023-04-16T11:16:58.281Z,29.08
2023-04-16T11:20:00.393Z,33.15
2023-04-16T11:23:02.200Z,32.47
2023-04-16T11:26:03.914Z,33.67
2023-04-16T11:29:17.294Z,30.45
2023-04-16T11:32:25.019Z,31.77
2023-04-16T11:35:27.433Z,31.42
2023-04-16T11:38:41.245Z,33.28
2023-04-16T11:41:52.687Z,32.45
2023-04-16T11:44:56.187Z,29.70
2023-04-16T11:47:58.227Z,33.05
2023-04-16T11:51:00.236Z,32.72
2023-04-16T11:54:02.388Z,34.92
2023-04-16T11:57:06.916Z,32.92
2023-04-16T12:00:11.293Z,33.95
2023-04-16T12:03:16.274Z,32.28
2023-04-16T12:06:18.124Z,34.60
2023-04-16T12:09:27.432Z,34.05
2023-04-16T12:12:32.306Z,35.92
2023-04-16T12:15:47.435Z,34.28
2023-04-16T12:19:00.654Z,32.95
2023-04-16T12:22:02.602Z,32.35
2023-04-16T12:25:07.911Z,39.17
2023-04-16T12:28:10.456Z,33.90
2023-04-16T12:31:12.562Z,33.42
2023-04-16T12:34:15.577Z,32.38
2023-04-16T12:37:17.165Z,31.88
2023-04-16T12:40:19.100Z,30.88
2023-04-16T12:43:21.522Z,30.48
2023-04-16T12:46:23.338Z,33.33
2023-04-16T12:49:25.338Z,30.33
2023-04-16T12:52:27.304Z,32.22
2023-04-16T12:55:29.360Z,30.83
2023-04-16T12:58:31.133Z,30.80
2023-04-16T13:01:36.210Z,28.90
2023-04-16T13:04:38.633Z,31.10
2023-04-16T13:07:41.356Z,29.63
2023-04-16T13:10:43.228Z,33.00
2023-04-16T13:13:45.604Z,32.85
2023-04-16T13:16:47.478Z,31.38
2023-04-16T13:19:49.496Z,29.15
2023-04-16T13:22:51.496Z,31.23
2023-04-16T13:25:53.420Z,29.00
2023-04-16T13:28:55.787Z,27.45
2023-04-16T13:31:57.932Z,30.88
2023-04-16T13:34:59.995Z,28.85
2023-04-16T13:38:01.947Z,27.30
2023-04-16T13:41:04.681Z,27.40
2023-04-16T13:44:06.757Z,25.52
2023-04-16T13:47:08.829Z,28.08
2023-04-16T13:50:11.219Z,23.58
2023-04-16T13:53:13.949Z,27.95
2023-04-16T13:56:15.674Z,25.80
2023-04-16T13:59:17.887Z,27.50
2023-04-16T14:02:20.730Z,25.08
2023-04-16T14:05:25.166Z,25.20
2023-04-16T14:08:28.649Z,25.13
2023-04-16T14:11:31.246Z,24.67
2023-04-16T14:14:33.427Z,24.92
2023-04-16T14:17:37.263Z,25.98
2023-04-16T14:20:40.287Z,23.00
2023-04-16T14:23:42.052Z,23.88
2023-04-16T14:26:44.484Z,21.35
2023-04-16T14:29:47.064Z,18.92
2023-04-16T14:32:48.746Z,17.05
2023-04-16T14:35:51.487Z,17.55
2023-04-16T14:38:53.310Z,18.02
2023-04-16T14:41:55.261Z,17.42
2023-04-16T14:44:57.018Z,18.17
2023-04-16T14:47:58.922Z,17.67
2023-04-16T14:51:00.788Z,17.02
2023-04-16T14:54:04.864Z,18.70
2023-04-16T14:57:06.773Z,18.95
2023-04-16T15:00:10.585Z,21.05
2023-04-16T15:03:12.941Z,19.23
2023-04-16T15:06:16.575Z,20.15
2023-04-16T15:09:18.433Z,18.48
2023-04-16T15:12:20.227Z,17.98
2023-04-16T15:15:22.299Z,20.55
2023-04-16T15:18:24.271Z,17.73
2023-04-16T15:21:28.071Z,15.30
2023-04-16T15:24:29.710Z,17.50
2023-04-16T15:27:31.597Z,16.30
2023-04-16T15:30:33.546Z,17.75
2023-04-16T15:33:35.552Z,17.05
2023-04-16T15:36:37.403Z,15.48
2023-04-16T15:39:39.252Z,16.30
2023-04-16T15:42:41.161Z,17.35
2023-04-16T15:45:43.235Z,15.07
2023-04-16T15:48:44.923Z,17.30
2023-04-16T15:51:46.972Z,15.68
2023-04-16T15:54:49.436Z,15.25
2023-04-16T15:57:52.427Z,14.95
2023-04-16T16:00:54.663Z,16.90
2023-04-16T16:03:58.075Z,15.45
2023-04-16T16:07:00.121Z,13.65
2023-04-16T16:10:02.046Z,16.38
2023-04-16T16:13:05.661Z,12.85
2023-04-16T16:16:07.591Z,11.70
2023-04-16T16:19:09.707Z,12.43
2023-04-16T16:22:13.003Z,11.68
2023-04-16T16:25:14.880Z,10.93
2023-04-16T16:28:16.909Z,13.43
2023-04-16T16:31:18.975Z,12.50
2023-04-16T16:34:21.580Z,10.73
2023-04-16T16:37:23.340Z,12.18
2023-04-16T16:40:25.581Z,9.60
2023-04-16T16:43:27.486Z,8.02
2023-04-16T16:46:29.614Z,9.30
2023-04-16T16:49:31.401Z,9.85
2023-04-16T16:52:33.214Z,11.38
2023-04-16T16:55:35.882Z,10.63
2023-04-16T16:58:37.620Z,13.98
2023-04-16T17:01:42.083Z,11.27
2023-04-16T17:04:44.215Z,9.95
2023-04-16T17:07:46.291Z,9.60
2023-04-16T17:10:48.078Z,7.93
2023-04-16T17:13:49.978Z,7.85
2023-04-16T17:16:52.230Z,8.80
2023-04-16T17:19:54.217Z,12.60
2023-04-16T17:22:56.087Z,10.25
2023-04-16T17:25:59.789Z,9.07
2023-04-16T17:29:01.813Z,9.32
2023-04-16T17:32:04.459Z,8.25
2023-04-16T17:35:06.930Z,6.82
2023-04-16T17:38:08.784Z,7.57
2023-04-16T17:41:10.977Z,11.52
2023-04-16T17:44:13.182Z,7.20
2023-04-16T17:47:15.340Z,8.07
2023-04-16T17:50:17.406Z,6.55
2023-04-16T17:53:19.087Z,8.35
2023-04-16T17:56:21.986Z,9.15
2023-04-16T17:59:23.957Z,8.88
2023-04-16T18:02:26.126Z,9.85
2023-04-16T18:05:28.145Z,7.20
2023-04-16T18:08:30.398Z,7.45
2023-04-16T18:11:32.198Z,10.15
2023-04-16T18:14:35.526Z,8.15
2023-04-16T18:17:37.277Z,9.20
2023-04-16T18:20:39.139Z,10.40
2023-04-16T18:23:42.256Z,9.98
2023-04-16T18:26:46.932Z,9.95
2023-04-16T18:29:49.517Z,9.60
2023-04-16T18:33:11.451Z,11.02
2023-04-16T18:36:13.485Z,14.93
2023-04-16T18:39:16.317Z,11.35
2023-04-16T18:42:18.356Z,9.70
2023-04-16T18:45:21.842Z,11.43
2023-04-16T18:48:24.207Z,10.93
2023-04-16T18:51:27.451Z,10.40
2023-04-16T18:54:29.230Z,14.07
2023-04-16T18:57:31.244Z,10.43
2023-04-16T19:00:33.069Z,19.75
2023-04-16T19:03:36.154Z,12.00
2023-04-16T19:06:38.464Z,11.35
2023-04-16T19:09:40.404Z,10.48
2023-04-16T19:12:42.215Z,11.32
2023-04-16T19:15:43.958Z,13.20
2023-04-16T19:18:45.857Z,11.55
2023-04-16T19:21:47.589Z,11.80
2023-04-16T19:24:49.750Z,12.13
2023-04-16T19:27:51.894Z,13.52
2023-04-16T19:30:54.072Z,11.48
2023-04-16T19:33:56.136Z,11.93
2023-04-16T19:36:57.967Z,14.50
2023-04-16T19:39:59.861Z,13.48
2023-04-16T19:43:01.872Z,14.32
2023-04-16T19:46:03.658Z,14.23
2023-04-16T19:49:05.617Z,17.38
2023-04-16T19:52:07.211Z,14.95
2023-04-16T19:55:09.329Z,14.25
2023-04-16T19:58:11.214Z,13.48
2023-04-16T20:01:13.204Z,11.77
2023-04-16T20:04:15.127Z,14.40
2023-04-16T20:07:17.304Z,14.80
2023-04-16T20:10:19.160Z,16.10
2023-04-16T20:13:21.255Z,12.73
2023-04-16T20:16:23.598Z,12.80
2023-04-16T20:19:29.990Z,15.35
2023-04-16T20:22:31.874Z,13.27
2023-04-16T20:25:33.800Z,14.65
2023-04-16T20:28:36.362Z,16.13
2023-04-16T20:31:37.985Z,13.90
2023-04-16T20:34:40.652Z,15.35
2023-04-16T20:37:43.361Z,15.98
2023-04-16T20:40:45.109Z,16.83
2023-04-16T20:43:50.343Z,14.52
2023-04-16T20:46:55.778Z,14.88
2023-04-16T20:49:58.304Z,15.75
2023-04-16T20:53:00.136Z,17.38
2023-04-16T20:56:01.871Z,14.13
2023-04-16T20:59:03.844Z,14.10
2023-04-16T21:02:06.087Z,15.82
2023-04-16T21:05:10.596Z,15.80
2023-04-16T21:08:12.415Z,13.38
2023-04-16T21:11:14.303Z,14.48
2023-04-16T21:14:16.326Z,16.90
2023-04-16T21:17:18.020Z,13.82
2023-04-16T21:20:19.976Z,14.43
2023-04-16T21:23:21.596Z,12.90
2023-04-16T21:26:23.315Z,14.63
2023-04-16T21:29:25.074Z,15.73
2023-04-16T21:32:26.956Z,15.50
2023-04-16T21:35:31.759Z,15.80
2023-04-16T21:38:33.678Z,16.23
2023-04-16T21:41:35.621Z,13.82
2023-04-16T21:44:37.404Z,17.13
2023-04-16T21:47:39.269Z,15.73
2023-04-16T21:50:41.344Z,16.15
2023-04-16T21:53:42.980Z,14.57
2023-04-16T21:56:44.955Z,14.05
2023-04-16T21:59:46.697Z,16.20
2023-04-16T22:02:48.819Z,14.75
2023-04-16T22:05:51.740Z,16.20
2023-04-16T22:08:54.633Z,17.23
2023-04-16T22:11:57.824Z,14.45
2023-04-16T22:15:02.756Z,16.95
2023-04-16T22:18:05.624Z,16.52
2023-04-16T22:21:07.409Z,16.73
2023-04-16T22:24:09.492Z,16.88
2023-04-16T22:27:11.228Z,16.52
2023-04-16T22:30:13.480Z,19.00
2023-04-16T22:33:15.704Z,17.75
2023-04-16T22:36:17.587Z,16.98
2023-04-16T22:39:19.381Z,16.65
2023-04-16T22:42:21.528Z,16.00
2023-04-16T22:45:23.534Z,18.40
2023-04-16T22:48:25.162Z,17.05
2023-04-16T22:51:27.079Z,18.75
2023-04-16T22:54:35.082Z,15.65
2023-04-16T22:57:37.130Z,18.05
2023-04-16T23:00:39.372Z,19.95
2023-04-16T23:03:41.344Z,17.10
2023-04-16T23:06:43.318Z,15.68
2023-04-16T23:09:44.958Z,16.98
2023-04-16T23:12:46.826Z,19.40
2023-04-16T23:15:48.771Z,16.40
2023-04-16T23:18:50.664Z,18.70
2023-04-16T23:21:52.546Z,16.85
2023-04-16T23:24:54.767Z,15.40
2023-04-16T23:27:56.789Z,17.10
2023-04-16T23:30:58.420Z,17.55
2023-04-16T23:34:00.273Z,16.25
2023-04-16T23:37:01.957Z,18.65
2023-04-16T23:40:04.828Z,15.65
2023-04-16T23:43:06.687Z,16.60
2023-04-16T23:46:08.348Z,19.17
2023-04-16T23:49:10.691Z,17.15
2023-04-16T23:52:12.564Z,17.73
2023-04-16T23:55:14.522Z,19.35
2023-04-16T23:58:16.176Z,19.35
